createdAt,value
2023-05-14T00:00:11.011Z,12.60
2023-05-14T00:02:39.776Z,12.70
2023-05-14T00:05:09.127Z,12.70
2023-05-14T00:07:37.644Z,12.70
2023-05-14T00:10:08.548Z,12.90
2023-05-14T00:12:37.089Z,13.10
2023-05-14T00:15:06.114Z,13.10
2023-05-14T00:17:39.100Z,13.00
2023-05-14T00:20:08.241Z,12.90
2023-05-14T00:22:37.339Z,13.10
2023-05-14T00:25:09.100Z,13.20
2023-05-14T00:27:38.822Z,13.40
2023-05-14T00:30:08.210Z,13.50
2023-05-14T00:32:36.995Z,13.30
2023-05-14T00:35:05.952Z,13.30
2023-05-14T00:37:34.390Z,13.30
2023-05-14T00:40:03.843Z,13.40
2023-05-14T00:42:34.748Z,13.30
2023-05-14T00:45:03.206Z,13.30
2023-05-14T00:47:31.682Z,13.30
2023-05-14T00:50:00.294Z,13.40
2023-05-14T00:52:29.032Z,13.30
2023-05-14T00:54:58.293Z,13.20
2023-05-14T00:57:26.814Z,13.30
2023-05-14T00:59:56.913Z,13.10
2023-05-14T01:02:25.686Z,13.00
2023-05-14T01:04:54.754Z,13.00
2023-05-14T01:07:31.857Z,13.20
2023-05-14T01:10:04.471Z,13.20
2023-05-14T01:12:49.333Z,13.10
2023-05-14T01:15:23.201Z,13.00
2023-05-14T01:17:55.817Z,12.90
2023-05-14T01:20:25.620Z,12.80
2023-05-14T01:22:55.709Z,12.70
2023-05-14T01:25:24.210Z,12.60
2023-05-14T01:28:00.980Z,12.50
2023-05-14T01:30:33.251Z,12.40
2023-05-14T01:33:06.467Z,12.30
2023-05-14T01:35:35.375Z,12.10
2023-05-14T01:38:08.678Z,12.00
2023-05-14T01:40:38.275Z,12.00
2023-05-14T01:43:07.486Z,12.00
2023-05-14T01:45:37.913Z,12.00
2023-05-14T01:48:06.962Z,12.00
2023-05-14T01:50:35.679Z,11.90
2023-05-14T01:53:05.808Z,11.90
2023-05-14T01:55:34.306Z,11.90
2023-05-14T01:58:02.792Z,11.90
2023-05-14T02:00:31.317Z,11.80
2023-05-14T02:02:59.978Z,11.90
2023-05-14T02:05:28.544Z,11.90
2023-05-14T02:07:57.074Z,11.90
2023-05-14T02:10:26.956Z,11.90
2023-05-14T02:12:55.611Z,11.70
2023-05-14T02:15:24.426Z,11.80
2023-05-14T02:17:52.991Z,11.90
2023-05-14T02:20:21.748Z,12.00
2023-05-14T02:22:50.459Z,12.10
2023-05-14T02:25:19.179Z,12.20
2023-05-14T02:27:49.641Z,12.10
2023-05-14T02:30:18.412Z,11.90
2023-05-14T02:32:47.193Z,12.00
2023-05-14T02:35:15.776Z,11.90
2023-05-14T02:37:44.771Z,11.70
2023-05-14T02:40:13.591Z,11.70
2023-05-14T02:42:42.579Z,11.70
2023-05-14T02:45:12.879Z,11.50
2023-05-14T02:47:41.341Z,11.50
2023-05-14T02:50:11.351Z,11.60
2023-05-14T02:52:39.963Z,11.40
2023-05-14T02:55:09.126Z,11.30
2023-05-14T02:57:37.552Z,11.30
2023-05-14T03:00:07.323Z,11.10
2023-05-14T03:02:37.684Z,11.30
2023-05-14T03:05:07.224Z,11.20
2023-05-14T03:07:35.755Z,11.10
2023-05-14T03:10:04.323Z,11.00
2023-05-14T03:12:32.867Z,11.00
2023-05-14T03:15:01.354Z,11.10
2023-05-14T03:17:29.848Z,11.10
2023-05-14T03:19:59.755Z,11.20
2023-05-14T03:22:28.748Z,11.20
2023-05-14T03:24:57.228Z,11.20
2023-05-14T03:27:25.770Z,11.30
2023-05-14T03:29:54.384Z,11.30
2023-05-14T03:32:22.957Z,11.30
2023-05-14T03:34:51.438Z,11.40
2023-05-14T03:37:21.423Z,11.30
2023-05-14T03:39:49.832Z,11.30
2023-05-14T03:42:18.309Z,11.40
2023-05-14T03:44:47.014Z,11.30
2023-05-14T03:47:15.498Z,11.30
2023-05-14T03:49:44.083Z,11.30
2023-05-14T03:52:12.554Z,11.20
2023-05-14T03:54:42.481Z,11.20
2023-05-14T03:57:10.945Z,11.20
2023-05-14T03:59:39.491Z,11.20
2023-05-14T04:02:08.412Z,11.20
2023-05-14T04:04:37.017Z,11.30
2023-05-14T04:07:06.018Z,11.30
2023-05-14T04:09:34.584Z,11.30
2023-05-14T04:12:04.600Z,11.40
2023-05-14T04:14:33.182Z,11.50
2023-05-14T04:17:01.725Z,11.40
2023-05-14T04:19:30.214Z,11.40
2023-05-14T04:21:58.724Z,11.40
2023-05-14T04:24:27.633Z,11.40
2023-05-14T04:26:56.062Z,11.40
2023-05-14T04:29:26.179Z,11.50
2023-05-14T04:31:54.931Z,11.60
2023-05-14T04:34:23.508Z,11.70
2023-05-14T04:36:52.426Z,11.80
2023-05-14T04:39:20.923Z,11.90
2023-05-14T04:41:49.362Z,12.00
2023-05-14T04:44:18.030Z,12.00
2023-05-14T04:46:47.945Z,12.10
2023-05-14T04:49:16.406Z,12.20
2023-05-14T04:51:46.069Z,12.40
2023-05-14T04:54:14.616Z,12.50
2023-05-14T04:56:43.649Z,12.70
2023-05-14T04:59:12.196Z,12.80
2023-05-14T05:01:40.793Z,12.90
2023-05-14T05:04:10.874Z,13.00
2023-05-14T05:06:39.408Z,13.10
2023-05-14T05:09:08.839Z,13.10
2023-05-14T05:11:37.990Z,13.20
2023-05-14T05:14:06.483Z,13.30
2023-05-14T05:16:35.041Z,13.30
2023-05-14T05:19:03.766Z,13.40
2023-05-14T05:21:33.834Z,13.40
2023-05-14T05:24:02.312Z,13.50
2023-05-14T05:26:31.844Z,13.60
2023-05-14T05:29:00.475Z,13.70
2023-05-14T05:31:29.556Z,13.80
2023-05-14T05:33:58.599Z,13.90
2023-05-14T05:36:27.697Z,14.00
2023-05-14T05:38:57.654Z,14.20
2023-05-14T05:41:26.712Z,14.40
2023-05-14T05:43:55.261Z,14.50
2023-05-14T05:46:23.755Z,14.60
2023-05-14T05:48:53.385Z,14.80
2023-05-14T05:51:21.911Z,14.80
2023-05-14T05:53:50.402Z,15.00
2023-05-14T05:56:20.311Z,15.10
2023-05-14T05:58:48.836Z,15.30
2023-05-14T06:01:17.266Z,15.40
2023-05-14T06:03:47.723Z,15.40
2023-05-14T06:06:17.171Z,15.50
2023-05-14T06:08:45.823Z,15.60
2023-05-14T06:11:14.334Z,15.70
2023-05-14T06:13:44.789Z,15.70
2023-05-14T06:16:13.277Z,15.90
2023-05-14T06:18:41.792Z,16.00
2023-05-14T06:21:10.794Z,16.10
2023-05-14T06:23:39.313Z,16.20
2023-05-14T06:26:07.993Z,16.30
2023-05-14T06:28:36.487Z,16.40
2023-05-14T06:31:06.493Z,16.50
2023-05-14T06:33:35.158Z,16.60
2023-05-14T06:36:08.421Z,16.70
2023-05-14T06:38:36.965Z,16.90
2023-05-14T06:41:05.639Z,17.00
2023-05-14T06:43:34.225Z,17.20
2023-05-14T06:46:02.752Z,17.40
2023-05-14T06:48:32.901Z,17.40
2023-05-14T06:51:03.221Z,17.50
2023-05-14T06:53:31.840Z,17.70
2023-05-14T06:56:00.298Z,18.00
2023-05-14T06:58:28.825Z,18.10
2023-05-14T07:00:59.916Z,18.20
2023-05-14T07:03:29.314Z,18.40
2023-05-14T07:05:59.252Z,18.50
2023-05-14T07:08:27.628Z,18.70
2023-05-14T07:10:57.482Z,18.80
2023-05-14T07:13:28.461Z,18.80
2023-05-14T07:15:57.306Z,18.80
2023-05-14T07:18:25.947Z,18.90
2023-05-14T07:20:54.467Z,18.90
2023-05-14T07:23:24.415Z,18.90
2023-05-14T07:25:52.900Z,18.90
2023-05-14T07:28:21.380Z,19.00
2023-05-14T07:30:49.946Z,19.00
2023-05-14T07:33:18.387Z,19.10
2023-05-14T07:35:46.961Z,19.30
2023-05-14T07:38:16.026Z,19.40
2023-05-14T07:40:46.100Z,19.50
2023-05-14T07:43:15.408Z,19.70
2023-05-14T07:45:44.272Z,19.80
2023-05-14T07:48:12.807Z,20.00
2023-05-14T07:50:41.301Z,20.10
2023-05-14T07:53:09.826Z,20.10
2023-05-14T07:55:38.678Z,20.30
2023-05-14T07:58:08.533Z,20.50
2023-05-14T08:00:37.350Z,20.60
2023-05-14T08:03:06.351Z,20.80
2023-05-14T08:05:35.440Z,20.80
2023-05-14T08:08:04.001Z,20.90
2023-05-14T08:10:32.694Z,21.30
2023-05-14T08:13:01.311Z,21.80
2023-05-14T08:15:31.345Z,22.70
2023-05-14T08:18:03.679Z,23.90
2023-05-14T08:20:32.478Z,24.50
2023-05-14T08:23:01.692Z,24.60
2023-05-14T08:25:30.198Z,25.50
2023-05-14T08:27:59.956Z,26.60
2023-05-14T08:30:28.651Z,27.40
2023-05-14T08:32:59.706Z,28.10
2023-05-14T08:35:28.187Z,28.50
2023-05-14T08:37:57.106Z,28.10
2023-05-14T08:40:26.224Z,28.60
2023-05-14T08:42:55.546Z,28.10
2023-05-14T08:45:30.164Z,28.00
2023-05-14T08:48:01.386Z,28.60
2023-05-14T08:50:31.593Z,28.70
2023-05-14T08:53:00.134Z,29.30
2023-05-14T08:55:29.392Z,29.10
2023-05-14T08:57:58.059Z,28.80
2023-05-14T09:00:27.120Z,29.20
2023-05-14T09:02:56.498Z,30.30
2023-05-14T09:05:26.701Z,31.50
2023-05-14T09:07:55.260Z,31.80
2023-05-14T09:10:23.985Z,32.60
2023-05-14T09:12:52.905Z,33.20
2023-05-14T09:15:21.460Z,33.70
2023-05-14T09:17:51.002Z,33.80
2023-05-14T09:20:21.212Z,33.90
2023-05-14T09:22:54.721Z,33.70
2023-05-14T09:25:28.773Z,34.10
2023-05-14T09:27:59.061Z,34.20
2023-05-14T09:30:28.084Z,34.40
2023-05-14T09:32:57.373Z,34.20
2023-05-14T09:35:26.801Z,34.70
2023-05-14T09:37:57.367Z,34.70
2023-05-14T09:40:33.225Z,34.50
2023-05-14T09:43:02.314Z,34.90
2023-05-14T09:45:31.937Z,34.70
2023-05-14T09:48:03.063Z,34.40
2023-05-14T09:50:32.038Z,34.80
2023-05-14T09:53:04.002Z,34.90
2023-05-14T09:55:33.496Z,35.60
2023-05-14T09:58:03.291Z,36.60
2023-05-14T10:00:33.066Z,36.60
2023-05-14T10:03:07.282Z,35.40
2023-05-14T10:05:37.627Z,35.40
2023-05-14T10:08:11.402Z,35.30
2023-05-14T10:10:40.404Z,34.40
2023-05-14T10:13:14.756Z,35.50
2023-05-14T10:15:49.569Z,35.20
2023-05-14T10:18:21.594Z,34.20
2023-05-14T10:20:58.553Z,32.60
2023-05-14T10:23:28.891Z,32.60
2023-05-14T10:25:58.093Z,32.70
2023-05-14T10:28:27.374Z,32.20
2023-05-14T10:30:56.772Z,30.70
2023-05-14T10:33:25.382Z,29.90
2023-05-14T10:36:02.659Z,28.80
2023-05-14T10:38:35.528Z,27.90
2023-05-14T10:41:06.580Z,27.60
2023-05-14T10:43:38.770Z,28.80
2023-05-14T10:46:08.747Z,28.70
2023-05-14T10:48:39.098Z,28.90
2023-05-14T10:51:10.416Z,29.40
2023-05-14T10:53:43.132Z,30.40
2023-05-14T10:56:13.348Z,29.80
2023-05-14T10:58:44.221Z,29.50
2023-05-14T11:01:14.761Z,30.70
2023-05-14T11:03:45.241Z,30.40
2023-05-14T11:06:15.440Z,29.30
2023-05-14T11:08:46.697Z,28.50
2023-05-14T11:11:15.486Z,28.30
2023-05-14T11:13:45.205Z,29.90
2023-05-14T11:16:23.481Z,31.70
2023-05-14T11:19:02.098Z,33.00
2023-05-14T11:21:32.003Z,33.60
2023-05-14T11:24:05.151Z,34.60
2023-05-14T11:26:34.470Z,35.00
2023-05-14T11:29:03.147Z,35.20
2023-05-14T11:31:31.931Z,35.20
2023-05-14T11:34:01.155Z,34.50
2023-05-14T11:36:29.688Z,34.40
2023-05-14T11:38:58.267Z,34.70
2023-05-14T11:41:28.410Z,35.20
2023-05-14T11:43:57.105Z,35.80
2023-05-14T11:46:26.358Z,36.00
2023-05-14T11:48:55.004Z,35.90
2023-05-14T11:51:24.742Z,36.00
2023-05-14T11:53:53.211Z,34.80
2023-05-14T11:56:23.646Z,33.20
2023-05-14T11:58:58.287Z,31.80
2023-05-14T12:01:28.863Z,31.00
2023-05-14T12:03:57.509Z,32.00
2023-05-14T12:06:32.623Z,33.30
2023-05-14T12:09:01.763Z,33.90
2023-05-14T12:11:33.066Z,34.50
2023-05-14T12:14:03.235Z,34.70
2023-05-14T12:16:33.834Z,35.10
2023-05-14T12:19:03.672Z,35.70
2023-05-14T12:21:32.690Z,35.80
2023-05-14T12:24:02.490Z,34.60
2023-05-14T12:26:34.652Z,34.30
2023-05-14T12:29:05.162Z,34.60
2023-05-14T12:31:35.289Z,34.80
2023-05-14T12:34:04.805Z,35.50
2023-05-14T12:36:33.541Z,36.20
2023-05-14T12:39:04.177Z,36.50
2023-05-14T12:41:32.938Z,36.70
2023-05-14T12:44:02.136Z,36.70
2023-05-14T12:46:32.359Z,37.30
2023-05-14T12:49:01.115Z,37.20
2023-05-14T12:51:30.056Z,36.80
2023-05-14T12:53:58.660Z,36.50
2023-05-14T12:56:28.620Z,35.80
2023-05-14T12:58:57.662Z,35.70
2023-05-14T13:01:26.658Z,35.40
2023-05-14T13:03:56.712Z,35.80
2023-05-14T13:06:25.372Z,35.60
2023-05-14T13:08:53.948Z,35.00
2023-05-14T13:11:22.888Z,35.10
2023-05-14T13:13:51.687Z,35.30
2023-05-14T13:16:20.283Z,35.30
2023-05-14T13:18:48.861Z,35.40
2023-05-14T13:21:18.925Z,35.50
2023-05-14T13:23:47.500Z,35.40
2023-05-14T13:26:16.730Z,34.70
2023-05-14T13:28:45.940Z,33.70
2023-05-14T13:31:15.855Z,32.60
2023-05-14T13:33:46.033Z,32.40
2023-05-14T13:36:16.310Z,32.00
2023-05-14T13:38:47.126Z,31.90
2023-05-14T13:41:15.691Z,32.50
2023-05-14T13:43:44.484Z,32.40
2023-05-14T13:46:14.022Z,32.70
2023-05-14T13:48:42.988Z,32.90
2023-05-14T13:51:11.643Z,32.20
2023-05-14T13:53:40.206Z,31.40
2023-05-14T13:56:10.277Z,30.70
2023-05-14T13:58:38.844Z,30.30
2023-05-14T14:01:07.934Z,30.50
2023-05-14T14:03:36.548Z,30.70
2023-05-14T14:06:05.577Z,30.90
2023-05-14T14:08:34.112Z,30.90
2023-05-14T14:11:02.723Z,30.50
2023-05-14T14:13:32.686Z,29.90
2023-05-14T14:16:03.258Z,29.70
2023-05-14T14:18:31.968Z,29.60
2023-05-14T14:21:00.640Z,29.10
2023-05-14T14:23:29.267Z,29.10
2023-05-14T14:25:58.745Z,29.30
2023-05-14T14:28:27.324Z,29.40
2023-05-14T14:30:58.247Z,29.60
2023-05-14T14:33:27.243Z,29.70
2023-05-14T14:35:56.323Z,29.30
2023-05-14T14:38:24.914Z,29.20
2023-05-14T14:40:53.470Z,29.30
2023-05-14T14:43:22.049Z,29.20
2023-05-14T14:45:50.640Z,29.20
2023-05-14T14:48:28.929Z,29.30
2023-05-14T14:50:57.532Z,29.00
2023-05-14T14:53:26.445Z,28.90
2023-05-14T14:55:55.276Z,29.10
2023-05-14T14:58:24.161Z,29.30
2023-05-14T15:00:54.277Z,29.30
2023-05-14T15:03:23.452Z,29.30
2023-05-14T15:05:55.311Z,29.20
2023-05-14T15:08:28.041Z,29.30
2023-05-14T15:10:57.241Z,29.00
2023-05-14T15:13:27.117Z,28.80
2023-05-14T15:15:55.756Z,28.50
2023-05-14T15:18:24.334Z,28.30
2023-05-14T15:20:54.277Z,28.20
2023-05-14T15:23:22.919Z,28.50
2023-05-14T15:25:51.489Z,28.50
2023-05-14T15:28:20.095Z,28.60
2023-05-14T15:30:49.438Z,28.70
2023-05-14T15:33:19.620Z,28.50
2023-05-14T15:35:48.403Z,28.60
2023-05-14T15:38:18.710Z,28.40
2023-05-14T15:40:47.436Z,28.00
2023-05-14T15:43:16.036Z,27.60
2023-05-14T15:45:46.631Z,27.60
2023-05-14T15:48:15.240Z,27.60
2023-05-14T15:50:44.238Z,27.50
2023-05-14T15:53:13.045Z,27.30
2023-05-14T15:55:43.140Z,27.10
2023-05-14T15:58:12.934Z,27.00
2023-05-14T16:00:41.547Z,26.80
2023-05-14T16:03:10.183Z,26.70
2023-05-14T16:05:38.834Z,26.70
2023-05-14T16:08:07.936Z,26.40
2023-05-14T16:10:36.504Z,26.30
2023-05-14T16:13:06.732Z,26.10
2023-05-14T16:15:35.407Z,25.90
2023-05-14T16:18:04.102Z,25.90
2023-05-14T16:20:32.753Z,25.60
2023-05-14T16:23:02.307Z,25.40
2023-05-14T16:25:31.726Z,25.10
2023-05-14T16:28:00.311Z,24.90
2023-05-14T16:30:30.305Z,24.70
2023-05-14T16:32:58.855Z,24.50
2023-05-14T16:35:27.734Z,24.30
2023-05-14T16:37:57.005Z,24.20
2023-05-14T16:40:25.823Z,24.30
2023-05-14T16:42:54.455Z,24.20
2023-05-14T16:45:23.306Z,24.10
2023-05-14T16:47:53.448Z,24.10
2023-05-14T16:50:22.382Z,24.10
2023-05-14T16:52:50.943Z,24.10
2023-05-14T16:55:20.815Z,24.10
2023-05-14T16:57:49.362Z,24.00
2023-05-14T17:00:20.214Z,24.00
2023-05-14T17:02:49.956Z,23.80
2023-05-14T17:05:19.969Z,23.70
2023-05-14T17:07:48.577Z,23.50
2023-05-14T17:10:17.254Z,23.30
2023-05-14T17:12:46.653Z,23.20
2023-05-14T17:15:15.180Z,23.10
2023-05-14T17:17:45.627Z,22.90
2023-05-14T17:20:16.782Z,22.50
2023-05-14T17:22:47.927Z,22.30
2023-05-14T17:25:18.092Z,22.20
2023-05-14T17:27:46.915Z,22.10
2023-05-14T17:30:15.891Z,21.90
2023-05-14T17:32:44.818Z,21.60
2023-05-14T17:35:13.567Z,21.50
2023-05-14T17:37:43.469Z,21.30
2023-05-14T17:40:14.597Z,21.20
2023-05-14T17:42:46.004Z,21.00
2023-05-14T17:45:15.764Z,20.80
2023-05-14T17:47:44.895Z,20.70
2023-05-14T17:50:13.496Z,20.50
2023-05-14T17:52:44.535Z,20.30
2023-05-14T17:55:14.751Z,20.20
2023-05-14T17:57:44.219Z,20.00
2023-05-14T18:00:14.161Z,20.00
2023-05-14T18:02:43.395Z,19.90
2023-05-14T18:05:12.736Z,19.80
2023-05-14T18:07:42.060Z,19.80
2023-05-14T18:10:11.234Z,19.70
2023-05-14T18:12:41.830Z,19.50
2023-05-14T18:15:11.254Z,19.40
2023-05-14T18:17:40.181Z,19.30
2023-05-14T18:20:10.408Z,19.20
2023-05-14T18:22:39.154Z,19.10
2023-05-14T18:25:09.723Z,19.10
2023-05-14T18:27:44.697Z,19.30
2023-05-14T18:30:16.811Z,19.10
2023-05-14T18:32:46.951Z,19.30
2023-05-14T18:35:15.610Z,19.30
2023-05-14T18:37:44.915Z,19.40
2023-05-14T18:40:16.898Z,19.40
2023-05-14T18:42:47.415Z,19.20
2023-05-14T18:45:18.620Z,19.30
2023-05-14T18:47:48.273Z,19.30
2023-05-14T18:50:16.894Z,19.00
2023-05-14T18:52:47.504Z,18.80
2023-05-14T18:55:16.903Z,18.60
2023-05-14T18:57:46.349Z,18.50
2023-05-14T19:00:18.007Z,18.40
2023-05-14T19:02:47.136Z,18.20
2023-05-14T19:05:16.154Z,18.10
2023-05-14T19:07:48.157Z,17.90
2023-05-14T19:10:16.956Z,17.60
2023-05-14T19:12:45.969Z,17.40
2023-05-14T19:15:15.253Z,17.30
2023-05-14T19:17:46.058Z,17.20
2023-05-14T19:20:15.013Z,17.20
2023-05-14T19:22:44.204Z,17.00
2023-05-14T19:25:13.015Z,17.00
2023-05-14T19:27:42.586Z,16.90
2023-05-14T19:30:12.867Z,16.90
2023-05-14T19:32:41.525Z,17.00
2023-05-14T19:35:12.394Z,17.00
2023-05-14T19:37:41.380Z,16.90
2023-05-14T19:40:10.996Z,16.80
2023-05-14T19:42:39.731Z,16.60
2023-05-14T19:45:10.386Z,16.50
2023-05-14T19:47:39.268Z,16.40
2023-05-14T19:50:09.640Z,16.50
2023-05-14T19:52:39.675Z,16.50
2023-05-14T19:55:08.918Z,16.50
2023-05-14T19:57:39.165Z,16.70
2023-05-14T20:00:10.664Z,16.80
2023-05-14T20:02:40.808Z,16.70
2023-05-14T20:05:10.772Z,16.80
2023-05-14T20:07:41.244Z,16.80
2023-05-14T20:10:11.091Z,16.80
2023-05-14T20:12:39.806Z,17.00
2023-05-14T20:15:09.950Z,17.10
2023-05-14T20:17:40.032Z,17.10
2023-05-14T20:20:10.160Z,17.20
2023-05-14T20:22:40.365Z,17.20
2023-05-14T20:25:10.240Z,17.20
2023-05-14T20:27:38.978Z,17.20
2023-05-14T20:30:08.932Z,17.20
2023-05-14T20:32:38.522Z,17.20
2023-05-14T20:35:08.315Z,17.40
2023-05-14T20:37:37.834Z,17.40
2023-05-14T20:40:12.581Z,17.50
2023-05-14T20:42:41.548Z,17.50
2023-05-14T20:45:11.225Z,17.50
2023-05-14T20:47:40.082Z,17.40
2023-05-14T20:50:10.019Z,17.20
2023-05-14T20:52:38.611Z,17.10
2023-05-14T20:55:10.049Z,17.10
2023-05-14T20:57:38.668Z,16.90
2023-05-14T21:00:09.021Z,16.70
2023-05-14T21:02:37.929Z,16.80
2023-05-14T21:05:07.706Z,16.70
2023-05-14T21:07:36.651Z,16.80
2023-05-14T21:10:05.312Z,16.50
2023-05-14T21:12:35.287Z,16.60
2023-05-14T21:15:03.891Z,16.60
2023-05-14T21:17:32.714Z,16.60
2023-05-14T21:20:01.299Z,16.60
2023-05-14T21:22:29.860Z,16.20
2023-05-14T21:24:58.446Z,16.20
2023-05-14T21:27:27.509Z,15.90
2023-05-14T21:29:57.450Z,15.80
2023-05-14T21:32:26.103Z,15.80
2023-05-14T21:34:54.716Z,15.90
2023-05-14T21:37:23.441Z,15.70
2023-05-14T21:39:52.328Z,15.70
2023-05-14T21:42:21.229Z,15.80
2023-05-14T21:44:49.866Z,15.90
2023-05-14T21:47:20.072Z,16.00
2023-05-14T21:49:48.610Z,15.80
2023-05-14T21:52:17.127Z,15.70
2023-05-14T21:54:46.126Z,15.60
2023-05-14T21:57:14.668Z,15.60
2023-05-14T21:59:43.370Z,15.40
2023-05-14T22:02:12.120Z,15.50
2023-05-14T22:04:42.207Z,15.40
2023-05-14T22:07:10.767Z,15.50
2023-05-14T22:09:39.349Z,15.40
2023-05-14T22:12:08.848Z,15.30
2023-05-14T22:14:37.434Z,15.20
2023-05-14T22:17:06.306Z,15.20
2023-05-14T22:19:34.867Z,15.10
2023-05-14T22:22:05.028Z,15.00
2023-05-14T22:24:33.607Z,14.80
2023-05-14T22:27:02.145Z,14.50
2023-05-14T22:29:30.831Z,14.40
2023-05-14T22:31:59.443Z,14.40
2023-05-14T22:34:27.985Z,14.40
2023-05-14T22:36:56.545Z,14.60
2023-05-14T22:39:26.625Z,14.70
2023-05-14T22:41:55.305Z,14.60
2023-05-14T22:44:24.124Z,14.60
2023-05-14T22:46:52.898Z,14.40
2023-05-14T22:49:21.529Z,14.20
2023-05-14T22:51:54.303Z,14.00
2023-05-14T22:54:23.027Z,14.00
2023-05-14T22:56:53.173Z,14.00
2023-05-14T22:59:23.562Z,14.10
2023-05-14T23:01:52.568Z,14.10
2023-05-14T23:04:21.237Z,14.10
2023-05-14T23:06:49.965Z,14.10
2023-05-14T23:09:19.111Z,14.20
2023-05-14T23:11:47.666Z,14.10
2023-05-14T23:14:18.087Z,14.10
2023-05-14T23:16:47.019Z,14.10
2023-05-14T23:19:15.645Z,14.20
2023-05-14T23:21:44.787Z,14.20
2023-05-14T23:24:13.472Z,14.30
2023-05-14T23:26:42.011Z,14.40
2023-05-14T23:29:10.709Z,14.40
2023-05-14T23:31:41.246Z,14.20
2023-05-14T23:34:09.837Z,14.20
2023-05-14T23:36:39.864Z,14.20
2023-05-14T23:39:08.490Z,14.30
2023-05-14T23:41:36.984Z,14.10
2023-05-14T23:44:06.072Z,13.80
2023-05-14T23:46:34.667Z,13.60
2023-05-14T23:49:04.690Z,13.40
2023-05-14T23:51:33.321Z,13.20
2023-05-14T23:54:01.943Z,13.00
2023-05-14T23:56:30.651Z,12.80
2023-05-14T23:58:59.304Z,12.70
